Time;durP1;ratioP1;P1;durP2;ratioP2;P2;SDS_P1;SDS_P2;PMS_P1;PMS_P2;Temp;Humidity;BMP_temperature;BMP_pressure;BME280_temperature;BME280_humidity;BME280_pressure;Samples;Min_cycle;Max_cycle;Signal;HPM_P1;HPM_P2
2021/10/25 00:00:09;;;;;;;;;;;3.90;99.90;;;2.16;100.00;101399.22;5011483;28;20071;-79
2021/10/25 00:02:36;;;;;;;6.80;2.70;;;3.80;99.90;;;2.15;100.00;101394.88;5011617;28;19948;-78
2021/10/25 00:05:03;;;;;;;10.75;2.88;;;3.80;99.90;;;2.08;100.00;101387.13;5006560;28;20573;-78
2021/10/25 00:07:29;;;;;;;11.27;3.03;;;3.70;99.90;;;2.02;100.00;101382.78;5015256;28;20071;-78
2021/10/25 00:09:55;;;;;;;;;;;3.70;99.90;;;1.92;100.00;101373.25;5018372;28;20173;-79
2021/10/25 00:12:21;;;;;;;8.25;2.75;;;3.60;99.90;;;1.95;100.00;101378.47;5014101;28;20001;-79
2021/10/25 00:14:47;;;;;;;;;;;3.60;99.90;;;1.85;100.00;101381.03;5017591;28;20135;-79
2021/10/25 00:17:12;;;;;;;7.63;2.85;;;3.50;99.90;;;1.88;100.00;101374.13;5005711;28;19961;-78
2021/10/25 00:19:38;;;;;;;6.10;3.03;;;3.50;99.90;;;1.96;100.00;101391.44;4999911;28;20081;-79
2021/10/25 00:22:04;;;;;;;9.52;2.95;;;3.60;99.90;;;1.87;100.00;101372.41;5023081;28;20060;-79
2021/10/25 00:24:30;;;;;;;;;;;3.60;99.90;;;1.95;100.00;101386.25;5024918;28;20065;-79
2021/10/25 00:26:56;;;;;;;10.73;2.85;;;3.60;99.90;;;1.93;100.00;101377.59;5015148;28;20086;-79
2021/10/25 00:29:24;;;;;;;;;;;3.60;99.90;;;2.00;100.00;101384.50;4992487;28;20145;-79
2021/10/25 00:31:50;;;;;;;5.38;2.60;;;3.60;99.90;;;2.01;100.00;101381.06;4992427;28;19947;-79
2021/10/25 00:34:16;;;;;;;10.65;3.20;;;3.70;99.90;;;2.01;100.00;101378.47;4995966;28;20075;-79
2021/10/25 00:36:42;;;;;;;;;;;3.70;99.90;;;2.07;100.00;101374.97;5016517;28;20078;-79
2021/10/25 00:39:09;;;;;;;12.82;4.15;;;3.70;99.90;;;2.04;100.00;101374.09;5018514;28;19945;-79
2021/10/25 00:41:35;;;;;;;8.60;3.15;;;3.80;99.90;;;2.21;100.00;101388.81;5018568;28;20060;-78
2021/10/25 00:44:01;;;;;;;13.85;3.72;;;3.80;99.90;;;2.21;100.00;101370.63;5006487;28;20059;-79
2021/10/25 00:46:36;;;;;;;12.85;3.60;;;;;;;2.26;100.00;101376.69;4990137;28;21607;-80
2021/10/25 00:49:03;;;;;;;14.68;3.50;;;3.80;99.90;;;2.14;100.00;101355.91;4958084;28;20056;-79
2021/10/25 00:51:31;;;;;;;9.90;3.45;;;3.80;99.90;;;2.08;100.00;101353.34;5003611;28;20558;-79
2021/10/25 00:53:58;;;;;;;12.88;3.85;;;3.70;99.90;;;2.10;100.00;101365.47;5023547;28;20495;-80
2021/10/25 00:56:24;;;;;;;16.40;4.90;;;3.70;99.90;;;1.99;100.00;101351.63;4996300;28;20103;-79
2021/10/25 00:58:50;;;;;;;11.27;4.03;;;3.70;99.90;;;2.09;100.00;101352.47;5009309;28;20119;-79
2021/10/25 01:01:16;;;;;;;11.52;3.55;;;3.70;99.90;;;2.06;100.00;101345.53;4987793;28;20056;-79
2021/10/25 01:03:42;;;;;;;;;;;3.70;99.90;;;2.18;100.00;101363.72;4999540;28;20591;-79
2021/10/25 01:06:08;;;;;;;6.57;3.00;;;3.70;99.90;;;2.11;100.00;101359.38;5024779;28;20298;-79
2021/10/25 01:08:37;;;;;;;11.50;4.60;;;3.70;99.90;;;2.01;100.00;101355.09;5004439;28;20064;-79
2021/10/25 01:11:04;;;;;;;11.35;3.30;;;3.70;99.90;;;1.98;100.00;101337.75;4996522;28;20056;-79
2021/10/25 01:13:30;;;;;;;13.70;3.92;;;3.60;99.90;;;1.92;100.00;101342.09;5016220;28;20057;-79
2021/10/25 01:15:56;;;;;;;12.38;3.90;;;3.60;99.90;;;1.88;100.00;101338.66;5004980;28;20091;-79
2021/10/25 01:18:22;;;;;;;;;;;3.60;99.90;;;1.79;100.00;101334.34;5019567;28;20150;-79
2021/10/25 01:20:47;;;;;;;9.40;3.40;;;3.50;99.90;;;1.84;100.00;101336.91;5019597;28;20078;-79
2021/10/25 01:23:13;;;;;;;8.00;3.67;;;3.50;99.90;;;1.87;100.00;101331.72;4975701;28;20159;-79
2021/10/25 01:25:39;;;;;;;;;;;3.50;99.90;;;1.82;100.00;101342.09;5011199;28;20154;-79
2021/10/25 01:28:05;;;;;;;14.30;3.85;;;3.50;99.90;;;1.76;100.00;101339.50;5028659;28;19975;-79
2021/10/25 01:30:32;;;;;;;10.35;3.60;;;3.50;99.90;;;1.77;100.00;101338.66;5010953;28;20075;-79
2021/10/25 01:32:58;;;;;;;13.30;4.88;;;3.50;99.90;;;1.83;100.00;101340.38;5021357;28;20057;-79
2021/10/25 01:35:24;;;;;;;15.68;4.40;;;3.40;99.90;;;1.71;100.00;101328.28;5015244;28;20076;-79
2021/10/25 01:37:50;;;;;;;;;;;3.40;99.90;;;1.72;100.00;101326.53;4993112;28;20069;-79
2021/10/25 01:40:16;;;;;;;9.43;3.40;;;3.40;99.90;;;1.79;100.00;101328.25;4985160;28;20312;-79
2021/10/25 01:42:45;;;;;;;10.45;4.30;;;3.50;99.90;;;1.79;100.00;101333.44;5006575;28;20084;-79
2021/10/25 01:45:13;;;;;;;12.40;4.63;;;4.20;99.90;;;1.95;100.00;101329.13;5011737;28;20064;-79
2021/10/25 01:47:39;;;;;;;11.85;4.20;;;3.60;99.90;;;1.92;100.00;101322.16;4995519;28;20545;-79
2021/10/25 01:50:05;;;;;;;;;;;3.60;99.90;;;1.91;100.00;101311.81;5006251;28;20060;-79
2021/10/25 01:52:32;;;;;;;13.20;4.07;;;3.60;99.90;;;1.88;100.00;101302.28;4999309;28;20406;-79
2021/10/25 01:54:59;;;;;;;11.95;4.47;;;3.50;99.90;;;1.80;100.00;101296.25;5002889;28;20075;-79
2021/10/25 01:57:27;;;;;;;8.35;4.05;;;3.50;99.90;;;1.74;100.00;101291.91;5012658;28;20380;-79
2021/10/25 01:59:53;;;;;;;7.60;3.80;;;3.40;99.90;;;1.71;100.00;101289.31;5004598;28;20077;-78
2021/10/25 02:02:19;;;;;;;;;;;3.40;99.90;;;1.70;100.00;101284.97;5012738;28;20477;-78
2021/10/25 02:04:45;;;;;;;11.40;4.43;;;3.40;99.90;;;1.64;100.00;101279.78;5013455;28;19956;-78
2021/10/25 02:07:12;;;;;;;13.45;3.83;;;3.40;99.90;;;1.74;100.00;101289.31;5036027;28;20471;-78
2021/10/25 02:09:38;;;;;;;13.43;4.18;;;3.30;99.90;;;1.64;100.00;101283.28;5008877;28;20480;-78
2021/10/25 02:12:07;;;;;;;10.77;4.60;;;3.30;99.90;;;1.61;100.00;101287.59;4995043;28;20067;-78
2021/10/25 02:14:33;;;;;;;11.88;4.22;;;3.30;99.90;;;1.45;100.00;101289.34;5014378;28;20061;-78
2021/10/25 02:17:00;;;;;;;12.98;4.85;;;3.10;99.90;;;1.27;100.00;101277.22;4987859;28;20161;-79
2021/10/25 02:19:26;;;;;;;13.40;4.20;;;3.00;99.90;;;1.25;100.00;101268.56;5017544;28;20577;-78
2021/10/25 02:21:51;;;;;;;;;;;3.00;99.90;;;1.22;100.00;101273.75;4992553;28;20082;-78
2021/10/25 02:24:25;;;;;;;11.10;3.80;;;2.90;99.90;;;1.11;100.00;101304.03;5014066;28;19952;-79
2021/10/25 02:26:51;;;;;;;9.07;3.75;;;2.80;99.90;;;0.97;100.00;101291.91;5022634;28;20076;-78
2021/10/25 02:29:17;;;;;;;;;;;2.60;99.90;;;0.79;100.00;101274.53;5009750;28;20056;-79
2021/10/25 02:31:43;;;;;;;15.05;4.05;;;2.50;99.90;;;0.79;100.00;101277.13;5026706;28;19989;-78
2021/10/25 02:34:11;;;;;;;11.13;4.20;;;2.50;99.90;;;0.79;100.00;101260.72;4987157;28;20136;-78
2021/10/25 02:36:37;;;;;;;10.35;3.92;;;2.60;99.90;;;0.84;100.00;101282.34;4960978;28;20089;-78
2021/10/25 02:39:04;;;;;;;10.40;4.40;;;2.70;99.90;;;0.90;100.00;101292.72;5003268;28;20518;-79
2021/10/25 02:41:30;;;;;;;14.20;5.15;;;2.70;99.90;;;0.87;100.00;101292.72;4978117;28;20121;-78
2021/10/25 02:43:56;;;;;;;14.55;4.45;;;2.60;99.90;;;0.95;100.00;101298.81;5011505;28;20641;-79
2021/10/25 02:46:23;;;;;;;10.98;4.50;;;2.70;99.90;;;1.10;100.00;101317.84;5019440;28;20067;-79
2021/10/25 02:48:49;;;;;;;9.80;4.35;;;2.80;99.90;;;1.10;100.00;101310.94;5018450;28;21118;-79
2021/10/25 02:51:15;;;;;;;12.55;4.63;;;2.80;99.90;;;1.16;100.00;101305.72;5013220;28;20055;-79
2021/10/25 02:53:41;;;;;;;13.82;4.82;;;2.90;99.90;;;1.25;100.00;101301.44;5001272;28;20048;-78
2021/10/25 02:56:07;;;;;;;9.32;4.60;;;3.00;99.90;;;1.36;100.00;101310.97;5018216;28;20073;-78
2021/10/25 02:58:36;;;;;;;10.50;4.72;;;3.00;99.90;;;1.27;100.00;101291.91;4992905;28;20089;-78
2021/10/25 03:01:02;;;;;;;14.00;4.50;;;2.90;99.90;;;1.26;100.00;101280.69;5024728;28;20063;-78
2021/10/25 03:03:28;;;;;;;13.90;4.20;;;3.00;99.90;;;1.18;100.00;101264.25;5001923;28;20482;-78
2021/10/25 03:05:54;;;;;;;14.45;4.90;;;2.90;99.90;;;1.21;100.00;101259.06;5007799;28;20600;-78
2021/10/25 03:08:22;;;;;;;9.77;4.60;;;2.80;99.90;;;1.01;100.00;101240.88;5008202;28;20071;-79
2021/10/25 03:10:48;;;;;;;22.77;5.32;;;2.70;99.90;;;0.94;100.00;101241.75;5014151;28;20057;-79
2021/10/25 03:13:14;;;;;;;;;;;2.60;99.90;;;0.82;100.00;101250.34;5043827;28;20115;-79
2021/10/25 03:15:40;;;;;;;16.47;4.70;;;2.60;99.90;;;0.81;100.00;101243.44;4967462;28;19952;-78
2021/10/25 03:18:06;;;;;;;15.80;4.57;;;2.50;99.90;;;0.74;100.00;101223.56;5018960;28;20496;-78
2021/10/25 03:20:32;;;;;;;17.27;4.65;;;2.50;99.90;;;0.70;100.00;101237.38;5022899;28;20090;-78
2021/10/25 03:23:06;;;;;;;11.10;4.93;;;2.40;99.90;;;0.65;100.00;101237.38;5040776;28;20082;-78
2021/10/25 03:25:32;;;;;;;11.05;4.63;;;2.50;99.90;;;0.77;100.00;101239.13;5024817;28;20074;-78
2021/10/25 03:27:58;;;;;;;13.18;4.10;;;2.60;99.90;;;0.88;100.00;101258.16;5019750;28;20064;-78
2021/10/25 03:30:24;;;;;;;12.90;4.53;;;2.60;99.90;;;0.95;100.00;101244.34;5031283;28;20584;-78
2021/10/25 03:32:51;;;;;;;10.73;4.22;;;2.60;99.90;;;0.94;100.00;101240.00;5022201;28;20188;-78
2021/10/25 03:35:17;;;;;;;12.65;4.53;;;2.70;99.90;;;1.07;100.00;101253.00;5038917;28;20427;-78
2021/10/25 03:37:44;;;;;;;14.02;4.95;;;2.70;99.90;;;1.01;100.00;101235.69;5030230;28;20129;-78
2021/10/25 03:40:11;;;;;;;14.30;4.95;;;2.80;99.90;;;1.06;100.00;101238.28;5035008;28;20068;-78
2021/10/25 03:42:42;;;;;;;19.42;5.65;;;2.80;99.90;;;1.13;100.00;101243.50;5008317;28;20150;-78
2021/10/25 03:45:22;;;;;;;12.82;4.45;;;2.80;99.90;;;1.12;100.00;101230.50;5025280;28;20113;-78
2021/10/25 03:47:55;;;;;;;15.93;5.07;;;2.70;99.90;;;1.02;100.00;101217.56;5033347;28;20097;-78
2021/10/25 03:50:23;;;;;;;15.80;5.32;;;2.80;99.90;;;1.09;100.00;101220.16;5027233;28;20068;-78
2021/10/25 03:55:33;;;;;;;14.30;5.07;;;2.70;99.90;;;1.00;100.00;101203.72;5032537;28;20510;-78
2021/10/25 04:03:52;;;;;;;10.98;4.82;;;2.60;99.90;;;0.93;100.00;101233.09;5024539;28;20543;-78
2021/10/25 04:28:35;;;;;;;15.60;5.68;;;2.40;99.90;;;0.57;100.00;101218.34;4981474;28;20112;-78
2021/10/25 04:31:04;;;;;;;14.65;5.40;;;2.30;99.90;;;0.57;100.00;101218.34;5015707;28;20063;-78
2021/10/25 04:33:30;;;;;;;20.65;5.45;;;2.30;99.90;;;0.52;100.00;101184.66;5011032;28;20472;-78
2021/10/25 04:35:56;;;;;;;12.00;4.75;;;2.20;99.90;;;0.49;100.00;101207.94;5023948;28;20066;-78
2021/10/25 04:38:22;;;;;;;13.77;5.47;;;2.30;99.90;;;0.55;100.00;101207.97;5012704;28;20067;-78
2021/10/25 04:40:49;;;;;;;11.27;4.82;;;2.30;99.90;;;0.60;100.00;101216.66;4984720;28;20067;-78
2021/10/25 04:43:19;;;;;;;17.58;5.60;;;2.40;99.90;;;0.69;100.00;101218.38;4998017;28;20405;-78
2021/10/25 04:45:46;;;;;;;19.38;6.28;;;2.40;99.90;;;0.75;100.00;101222.69;4999027;28;20531;-78
2021/10/25 04:48:13;;;;;;;13.23;4.93;;;2.40;99.90;;;0.84;100.00;101219.25;4992807;28;21240;-78
2021/10/25 04:50:39;;;;;;;22.27;6.13;;;2.50;99.90;;;0.72;100.00;101200.22;5022457;28;20053;-78
2021/10/25 04:53:05;;;;;;;17.55;5.50;;;2.40;99.90;;;0.65;100.00;101198.50;5004839;28;20070;-78
2021/10/25 04:55:31;;;;;;;;;;;2.40;99.90;;;0.60;100.00;101195.91;4998424;28;20064;-78
2021/10/25 04:57:57;;;;;;;13.60;4.97;;;2.30;99.90;;;0.56;100.00;101189.00;4973045;28;19963;-78
2021/10/25 05:00:23;;;;;;;11.57;5.45;;;2.30;99.90;;;0.49;100.00;101179.44;5013898;28;20103;-78
2021/10/25 05:02:49;;;;;;;13.52;6.47;;;2.30;99.90;;;0.54;100.00;101179.44;5000363;28;20060;-78
2021/10/25 05:05:15;;;;;;;12.82;5.70;;;2.30;99.90;;;0.54;100.00;101177.75;4974371;28;20086;-78
2021/10/25 05:07:41;;;;;;;15.20;4.57;;;2.30;99.90;;;0.60;100.00;101185.53;5021925;28;20591;-78
2021/10/25 05:10:09;;;;;;;16.63;6.18;;;2.30;99.90;;;0.55;100.00;101187.25;5019049;28;20080;-78
2021/10/25 05:12:38;;;;;;;15.20;5.38;;;2.30;99.90;;;0.59;100.00;101193.31;5012541;28;20068;-77
2021/10/25 05:15:05;;;;;;;26.08;5.78;;;2.30;99.90;;;0.51;100.00;101176.88;4985932;28;20247;-78
2021/10/25 05:17:31;;;;;;;14.93;5.13;;;2.20;99.90;;;0.37;100.00;101166.50;5022106;28;20087;-78
2021/10/25 05:19:57;;;;;;;14.25;5.90;;;2.10;99.90;;;0.23;100.00;101174.19;4998667;28;20414;-78
2021/10/25 05:22:23;;;;;;;15.70;5.35;;;2.00;99.90;;;0.16;100.00;101162.97;5011149;28;20538;-78
2021/10/25 05:24:52;;;;;;;11.02;5.72;;;1.90;99.90;;;0.08;100.00;101158.63;5004899;28;20146;-77
2021/10/25 05:27:20;;;;;;;14.80;5.88;;;1.90;99.90;;;0.09;100.00;101170.72;4989171;28;20270;-78
2021/10/25 05:29:47;;;;;;;12.73;5.43;;;1.80;99.90;;;0.01;100.00;101168.09;5000920;28;20073;-77
2021/10/25 05:32:13;;;;;;;11.55;5.60;;;1.80;99.90;;;0.02;100.00;101169.81;5042296;28;20082;-78
2021/10/25 05:34:39;;;;;;;14.07;5.07;;;1.80;99.90;;;0.01;100.00;101175.84;5013548;28;20132;-77
2021/10/25 05:37:08;;;;;;;33.20;10.45;;;1.80;99.90;;;0.03;100.00;101181.91;5032405;28;20121;-77
2021/10/25 05:39:34;;;;;;;18.40;6.25;;;1.80;99.90;;;0.00;100.00;101176.72;5010509;28;20058;-78
2021/10/25 05:42:04;;;;;;;13.80;5.78;;;1.80;99.90;;;0.06;100.00;101192.28;5033317;28;20064;-78
2021/10/25 05:44:30;;;;;;;16.80;5.68;;;2.00;99.90;;;0.06;100.00;101192.28;5034296;28;20145;-77
2021/10/25 05:46:58;;;;;;;19.10;5.93;;;1.90;99.90;;;0.18;100.00;101196.66;5033338;28;20081;-77
2021/10/25 05:49:24;;;;;;;10.23;5.65;;;2.00;99.90;;;0.12;100.00;101186.25;5025571;28;20521;-77
2021/10/25 05:51:50;;;;;;;14.65;5.65;;;1.90;99.90;;;0.16;100.00;101194.03;5032623;28;20684;-77
2021/10/25 05:54:16;;;;;;;20.80;7.90;;;2.00;99.90;;;0.17;100.00;101195.78;5023714;28;20065;-77
2021/10/25 05:56:43;;;;;;;21.17;6.80;;;1.90;99.90;;;0.13;100.00;101186.28;4982597;28;20126;-77
2021/10/25 05:59:09;;;;;;;17.60;6.22;;;1.90;99.90;;;0.13;100.00;101188.88;5013889;28;20072;-77
2021/10/25 06:01:44;;;;;;;13.15;6.32;;;1.90;99.90;;;0.11;100.00;101189.69;5031699;28;20058;-77
2021/10/25 06:04:12;;;;;;;21.02;5.93;;;1.90;99.90;;;0.11;100.00;101195.75;5024048;28;20420;-77
2021/10/25 06:06:38;;;;;;;14.85;5.63;;;1.90;99.90;;;0.09;100.00;101197.47;5041303;28;20433;-77
2021/10/25 06:09:05;;;;;;;17.55;6.18;;;1.90;99.90;;;0.10;100.00;101196.59;5045781;28;20065;-77
2021/10/25 06:11:35;;;;;;;19.13;6.47;;;1.90;99.90;;;0.07;100.00;101199.19;5015912;28;20212;-77
2021/10/25 06:14:03;;;;;;;13.07;5.47;;;1.80;99.90;;;-0.04;100.00;101186.19;4996631;28;20073;-77
2021/10/25 06:16:43;;;;;;;16.63;6.65;;;1.70;99.90;;;-0.09;100.00;101179.25;5014468;28;20553;-77
2021/10/25 06:19:15;;;;;;;16.65;5.47;;;1.70;99.90;;;-0.11;100.00;101179.28;4999646;28;20074;-77
2021/10/25 06:21:41;;;;;;;17.58;5.18;;;1.70;99.90;;;-0.14;100.00;101183.56;5030191;28;20056;-77
2021/10/25 06:24:07;;;;;;;14.70;5.30;;;1.70;99.90;;;-0.16;100.00;101185.28;5035526;28;20125;-77
2021/10/25 06:26:33;;;;;;;13.07;6.00;;;1.70;99.90;;;-0.11;100.00;101191.31;5031674;28;20091;-77
2021/10/25 06:28:59;;;;;;;12.93;4.82;;;1.70;99.90;;;-0.07;100.00;101200.84;5020957;28;20063;-77
2021/10/25 06:31:27;;;;;;;13.98;6.07;;;1.80;99.90;;;0.04;100.00;101208.66;5013257;28;20084;-77
2021/10/25 06:33:54;;;;;;;13.43;5.72;;;1.90;99.90;;;0.20;100.00;101221.69;5011621;28;20061;-77
2021/10/25 06:36:22;;;;;;;15.93;5.78;;;;;;;0.26;100.00;101219.97;5002160;28;20051;-77
2021/10/25 06:38:56;;;;;;;15.75;5.57;;;2.10;99.90;;;0.38;100.00;101246.78;5035457;28;20068;-77
2021/10/25 06:41:26;;;;;;;13.82;5.43;;;2.30;99.90;;;0.61;100.00;101258.97;5019780;28;20575;-77
2021/10/25 06:43:53;;;;;;;16.92;6.47;;;2.50;99.90;;;0.89;100.00;101275.44;5011443;28;20082;-77
2021/10/25 06:46:19;;;;;;;14.90;7.00;;;2.90;99.90;;;1.88;100.00;101322.19;5013119;28;20135;-76
2021/10/25 06:48:46;;;;;;;16.35;7.50;;;3.80;99.90;;;3.31;100.00;101374.53;5019056;28;20052;-77
2021/10/25 06:51:12;;;;;;;16.92;7.30;;;5.10;99.90;;;4.45;100.00;101377.03;5003438;28;20049;-77
2021/10/25 06:53:38;;;;;;;17.63;6.30;;;5.90;99.90;;;5.19;100.00;101359.59;5005353;28;20507;-77
2021/10/25 06:56:04;;;;;;;;;;;7.00;99.90;;;6.55;96.98;101401.78;4994814;28;20515;-77
2021/10/25 06:58:30;;;;;;;14.07;5.22;;;8.30;99.90;;;8.28;82.88;101448.59;5020171;28;19955;-77
2021/10/25 07:00:58;;;;;;;;;;;8.60;99.90;;;9.49;74.08;101493.47;5012556;28;20102;-77
2021/10/25 07:03:25;;;;;;;8.43;3.92;;;10.60;99.90;;;10.34;67.94;101520.66;5016407;28;20406;-78
2021/10/25 07:05:52;;;;;;;9.27;4.47;;;11.20;99.90;;;11.06;63.79;101555.06;5012431;28;20083;-78
2021/10/25 07:08:18;;;;;;;8.57;3.60;;;11.80;99.90;;;11.43;63.00;101675.91;5010609;28;20060;-78
2021/10/25 07:10:44;;;;;;;;;;;11.80;99.90;;;11.70;62.25;101683.75;4989559;28;20151;-78
2021/10/25 07:13:10;;;;;;;11.10;3.83;;;12.80;99.90;;;11.75;58.97;101620.25;4987706;28;19904;-78
2021/10/25 07:15:44;;;;;;;8.73;3.40;;;12.40;99.90;;;9.96;62.97;101481.47;5048144;28;20029;-78
2021/10/25 07:18:26;;;;;;;10.38;3.33;;;11.10;99.90;;;8.46;68.39;101449.91;5019811;28;20152;-78
2021/10/25 07:26:47;;;;;;;8.43;4.07;;;8.90;99.90;;;9.64;70.51;101595.56;5022736;28;20058;-78
2021/10/25 08:10:09;;;;;;;14.35;4.57;;;7.50;99.90;;;6.50;86.62;101394.91;5034905;28;20058;-78
2021/10/25 08:12:39;;;;;;;15.52;4.18;;;7.50;99.90;;;6.12;86.88;101380.78;5044055;28;20059;-78
2021/10/25 08:15:09;;;;;;;8.90;4.20;;;7.10;99.90;;;5.64;89.67;101336.28;5036876;28;20544;-78
2021/10/25 08:17:44;;;;;;;9.18;4.88;;;6.80;99.90;;;5.31;92.92;101325.44;5026574;28;20068;-78
2021/10/25 08:20:11;;;;;;;13.35;4.65;;;6.50;99.90;;;5.02;94.90;101324.13;5034761;28;20068;-78
2021/10/25 08:22:38;;;;;;;14.27;5.10;;;6.50;99.90;;;5.20;96.10;101304.72;5044365;28;20423;-78
2021/10/25 08:25:06;;;;;;;10.65;4.95;;;6.80;99.90;;;6.18;93.11;101349.31;5026421;28;20067;-77
2021/10/25 08:27:32;;;;;;;26.20;5.22;;;7.80;99.90;;;8.21;86.34;101495.13;5033281;28;20058;-78
2021/10/25 08:30:03;;;;;;;12.93;4.55;;;9.40;99.90;;;10.52;74.45;101585.88;5005497;28;20129;-78
2021/10/25 08:39:59;;;;;;;12.30;4.15;;;12.10;99.90;;;13.17;60.32;101642.78;5056884;28;20041;-79
2021/10/25 08:42:26;;;;;;;14.73;4.38;;;12.30;99.90;;;13.53;60.18;101663.31;5013524;28;20066;-79
2021/10/25 08:45:05;;;;;;;12.93;4.47;;;12.60;99.90;;;14.21;57.45;101684.94;4997765;28;20068;-79
2021/10/25 08:47:36;;;;;;;9.20;4.43;;;12.90;99.90;;;14.17;56.78;101662.19;4997184;28;20059;-79
2021/10/25 08:50:10;;;;;;;13.25;5.20;;;12.80;99.90;;;14.62;55.69;101694.53;4994770;28;20423;-79
2021/10/25 08:52:38;;;;;;;15.18;5.07;;;13.00;99.90;;;14.76;55.48;101694.72;5017161;28;20066;-79
2021/10/25 08:55:11;;;;;;;14.05;5.32;;;13.40;99.90;;;15.21;54.67;101713.75;5040162;28;20040;-79
2021/10/25 08:57:40;;;;;;;11.70;5.18;;;13.90;99.90;;;16.09;52.00;101774.69;5001595;28;20366;-80
2021/10/25 09:00:12;;;;;;;13.38;4.93;;;14.30;99.90;;;16.13;50.83;101733.75;4981665;28;20045;-79
2021/10/25 09:03:06;;;;;;;12.80;4.63;;;13.80;99.90;;;15.46;51.27;101657.59;4983288;28;20103;-79
2021/10/25 09:06:17;;;;;;;17.08;4.75;;;14.30;99.90;;;16.43;50.61;101742.78;4979069;28;20046;-80
2021/10/25 09:09:14;;;;;;;19.10;5.45;;;14.70;99.90;;;16.68;49.87;101713.03;4983917;28;20132;-80
2021/10/25 09:12:30;;;;;;;14.25;5.05;;;14.60;99.90;;;16.58;50.88;101681.63;4958437;28;20114;-80
2021/10/25 09:15:24;;;;;;;8.75;4.15;;;14.20;99.90;;;15.97;50.99;101623.94;5005159;28;20043;-80
2021/10/25 09:18:52;;;;;;;12.70;4.72;;;13.70;99.90;;;15.13;53.51;101550.50;4985634;28;20474;-81
2021/10/25 09:22:16;;;;;;;11.27;3.92;;;13.70;99.90;;;14.43;55.28;101548.81;4973541;28;20034;-81
2021/10/25 09:25:43;;;;;;;10.70;4.47;;;13.60;99.90;;;13.94;54.74;101477.91;4981420;28;20074;-81
2021/10/25 09:28:44;;;;;;;10.45;4.80;;;12.60;99.90;;;13.05;58.82;101408.00;4983029;28;20066;-81
2021/10/25 09:32:09;;;;;;;9.38;4.45;;;12.60;99.90;;;12.73;60.43;101434.97;4975876;28;20418;-80
2021/10/25 09:35:53;;;;;;;14.52;4.45;;;12.40;99.90;;;11.55;63.72;101347.53;4948677;28;20097;-80
2021/10/25 09:38:49;;;;;;;10.50;4.38;;;12.00;99.90;;;10.78;67.77;101220.63;4957636;28;20083;-81
2021/10/25 09:51:12;;;;;;;12.57;4.90;;;10.60;99.90;;;9.27;74.65;101297.00;4973744;28;20163;-81
2021/10/25 09:54:43;;;;;;;8.70;4.55;;;10.30;99.90;;;9.16;75.35;101289.47;4968928;28;20067;-81
2021/10/25 09:58:17;;;;;;;10.93;4.63;;;10.20;99.90;;;8.94;78.29;101272.63;4997840;28;20070;-81
2021/10/25 10:01:28;;;;;;;11.43;4.95;;;9.80;99.90;;;8.83;78.78;101265.97;4994828;28;20045;-81
2021/10/25 10:04:14;;;;;;;13.35;4.60;;;10.10;99.90;;;8.96;79.26;101265.56;4976251;28;20075;-81
2021/10/25 10:07:37;;;;;;;13.00;4.80;;;10.00;99.90;;;8.92;78.82;101264.81;4982564;28;20092;-81
2021/10/25 10:10:37;;;;;;;12.13;4.65;;;9.90;99.90;;;8.82;78.98;101248.47;4984528;28;20136;-81
2021/10/25 10:13:41;;;;;;;12.57;4.80;;;10.00;99.90;;;8.94;80.31;101256.88;4989693;28;20706;-81
2021/10/25 10:16:23;;;;;;;14.23;5.03;;;10.00;99.90;;;8.95;80.57;101248.09;4974516;28;20186;-81
2021/10/25 10:19:10;;;;;;;12.73;5.07;;;10.00;99.90;;;8.86;80.20;101238.75;4940904;28;20162;-81
2021/10/25 10:22:07;;;;;;;10.80;5.25;;;9.90;99.90;;;8.74;82.37;101223.38;4980819;28;20073;-81
2021/10/25 10:24:49;;;;;;;10.75;5.10;;;10.00;99.90;;;8.81;81.66;101224.88;4993323;28;20965;-81
2021/10/25 10:27:24;;;;;;;10.38;5.10;;;10.00;99.90;;;8.69;80.70;101202.50;4972163;28;20063;-81
2021/10/25 10:30:23;;;;;;;10.68;5.47;;;9.90;99.90;;;8.81;82.63;101217.00;4965132;28;20070;-81
2021/10/25 10:33:20;;;;;;;14.50;4.95;;;10.10;99.90;;;8.96;82.94;101234.06;4983003;28;20075;-81
2021/10/25 10:35:48;;;;;;;10.03;4.17;;;10.20;99.90;;;8.99;82.88;101223.47;4970709;28;20082;-81
2021/10/25 10:38:15;;;;;;;9.60;4.78;;;10.10;99.90;;;8.92;83.01;101216.66;4970267;28;20074;-81
2021/10/25 10:40:43;;;;;;;11.88;5.20;;;10.20;99.90;;;9.02;82.48;101215.47;4965098;28;20078;-81
2021/10/25 10:43:25;;;;;;;12.55;5.35;;;10.20;99.90;;;9.05;82.38;101212.78;4999729;28;20060;-81
2021/10/25 10:46:14;;;;;;;13.07;5.10;;;10.30;99.90;;;9.17;82.49;101219.38;4989707;28;21242;-81
2021/10/25 10:48:44;;;;;;;10.20;5.10;;;10.40;99.90;;;9.17;83.29;101222.00;5001303;28;20129;-81
2021/10/25 10:51:12;;;;;;;11.90;4.72;;;10.40;99.90;;;9.20;82.88;101212.25;4977312;28;20197;-81
2021/10/25 10:53:57;;;;;;;14.25;4.93;;;10.50;99.90;;;9.30;81.43;101214.56;5021734;28;20107;-81
2021/10/25 10:56:30;;;;;;;9.15;4.18;;;10.60;99.90;;;9.44;82.06;101233.38;5009315;28;20070;-81
2021/10/25 11:01:33;;;;;;;8.52;4.50;;;10.60;99.90;;;9.35;81.20;101210.00;5040295;28;20059;-81
2021/10/25 11:04:04;;;;;;;11.43;5.20;;;10.60;99.90;;;9.46;82.00;101221.03;4957898;28;20426;-82
2021/10/25 11:06:37;;;;;;;10.82;5.10;;;10.80;99.90;;;9.60;82.13;101237.19;4991140;28;20029;-82
2021/10/25 11:09:11;;;;;;;11.98;4.88;;;10.90;99.90;;;9.79;81.12;101241.81;4995081;28;20052;-81
2021/10/25 11:11:43;;;;;;;10.52;5.07;;;10.90;99.90;;;9.58;80.76;101207.47;4968661;28;20083;-81
2021/10/25 11:14:17;;;;;;;8.90;4.35;;;10.90;99.90;;;9.59;81.52;101198.66;5001808;28;20148;-81
2021/10/25 11:16:54;;;;;;;11.85;5.05;;;10.90;99.90;;;9.65;81.04;101206.34;4996297;28;20032;-82
2021/10/25 11:19:21;;;;;;;11.25;5.00;;;11.00;99.90;;;9.73;80.40;101206.06;5007956;28;20058;-81
2021/10/25 11:21:54;;;;;;;12.10;5.43;;;10.90;99.90;;;9.55;80.72;101188.31;4980482;28;20523;-82
2021/10/25 11:24:23;;;;;;;9.98;5.07;;;10.90;99.90;;;9.54;80.82;101190.06;4991647;28;20139;-81
2021/10/25 11:26:56;;;;;;;10.30;4.88;;;10.90;99.90;;;9.48;82.96;101187.69;4978093;28;20067;-81
2021/10/25 11:29:31;;;;;;;10.38;4.97;;;10.90;99.90;;;9.47;82.69;101204.34;5006670;28;20032;-81
2021/10/25 11:32:08;;;;;;;11.88;4.40;;;10.90;99.90;;;9.52;83.36;101197.16;5020487;28;20102;-82
2021/10/25 11:34:44;;;;;;;12.68;5.10;;;10.90;99.90;;;9.51;83.04;101192.81;5007835;28;20037;-81
2021/10/25 11:37:19;;;;;;;7.80;3.85;;;10.90;99.90;;;9.54;83.32;101195.31;5039313;28;20040;-81
2021/10/25 11:40:05;;;;;;;11.73;4.95;;;10.80;99.90;;;9.54;83.07;101186.59;5010325;28;20043;-81
2021/10/25 11:42:45;;;;;;;11.02;4.97;;;10.80;99.90;;;9.50;81.94;101166.56;5004945;28;20078;-80
2021/10/25 11:45:19;;;;;;;11.27;5.03;;;10.80;99.90;;;9.47;83.38;101162.28;5009875;28;20047;-81
2021/10/25 11:47:51;;;;;;;10.10;4.47;;;10.90;99.90;;;9.52;83.76;101176.13;4980502;28;20076;-81
2021/10/25 11:50:23;;;;;;;12.90;5.38;;;10.80;99.90;;;9.48;82.42;101161.38;5016022;28;20408;-81
2021/10/25 11:52:58;;;;;;;11.82;5.10;;;10.70;99.90;;;9.40;82.54;101160.78;4996566;28;20568;-81
2021/10/25 11:55:42;;;;;;;7.53;4.57;;;10.70;99.90;;;9.39;83.12;101157.28;4965936;28;20076;-81
2021/10/25 11:58:14;;;;;;;10.80;5.13;;;10.70;99.90;;;9.36;83.16;101112.72;5020024;28;20074;-81
2021/10/25 12:00:44;;;;;;;11.02;4.57;;;10.70;99.90;;;9.41;83.56;101126.56;5044187;28;20037;-82
2021/10/25 12:03:21;;;;;;;11.13;4.90;;;10.70;99.90;;;9.42;83.30;101159.81;5048240;28;20662;-81
2021/10/25 12:05:48;;;;;;;9.57;4.47;;;10.80;99.90;;;9.49;84.04;101152.56;5032250;28;20082;-81
2021/10/25 12:08:19;;;;;;;11.23;4.93;;;10.80;99.90;;;9.45;83.16;101143.94;5017372;28;20155;-81
2021/10/25 12:10:51;;;;;;;12.85;5.45;;;10.70;99.90;;;9.38;83.04;101138.97;5031088;28;20094;-81
2021/10/25 12:13:19;;;;;;;9.30;4.93;;;10.70;99.90;;;9.45;82.89;101151.81;4979000;28;20066;-81
2021/10/25 12:16:02;;;;;;;11.43;5.03;;;10.70;99.90;;;9.51;83.17;101139.38;4972223;28;20682;-81